sensor_id;sensor_type;location;lat;lon;timestamp;pressure;altitude;pressure_sealevel;temperature;humidity
41140;BME280;26881;48.784;9.192;2023-11-19T00:05:15;98512.09;;;7.86;100.00
41140;BME280;26881;48.784;9.192;2023-11-19T00:10:37;98496.53;;;7.85;100.00
41140;BME280;26881;48.784;9.192;2023-11-19T00:15:59;98485.28;;;7.84;100.00
41140;BME280;26881;48.784;9.192;2023-11-19T00:21:21;98465.69;;;7.77;100.00
41140;BME280;26881;48.784;9.192;2023-11-19T00:26:43;98464.09;;;7.74;100.00
41140;BME280;26881;48.784;9.192;2023-11-19T00:32:05;98464.09;;;7.74;100.00
41140;BME280;26881;48.784;9.192;2023-11-19T00:37:29;98464.84;;;7.76;100.00
41140;BME280;26881;48.784;9.192;2023-11-19T00:42:51;98447.81;;;8.04;100.00
41140;BME280;26881;48.784;9.192;2023-11-19T00:48:13;98454.09;;;8.17;100.00
41140;BME280;26881;48.784;9.192;2023-11-19T00:53:35;98438.63;;;8.14;100.00
41140;BME280;26881;48.784;9.192;2023-11-19T00:58:56;98433.66;;;8.10;100.00
41140;BME280;26881;48.784;9.192;2023-11-19T01:04:18;98431.06;;;8.10;100.00
41140;BME280;26881;48.784;9.192;2023-11-19T01:09:43;98422.47;;;8.08;100.00
41140;BME280;26881;48.784;9.192;2023-11-19T01:15:06;98422.25;;;8.12;100.00
41140;BME280;26881;48.784;9.192;2023-11-19T01:20:28;98430.91;;;8.13;100.00
41140;BME280;26881;48.784;9.192;2023-11-19T01:25:49;98421.25;;;8.15;100.00
41140;BME280;26881;48.784;9.192;2023-11-19T01:31:11;98408.91;;;8.18;100.00
41140;BME280;26881;48.784;9.192;2023-11-19T01:36:34;98408.97;;;8.17;100.00
41140;BME280;26881;48.784;9.192;2023-11-19T01:41:56;98405.06;;;8.26;100.00
41140;BME280;26881;48.784;9.192;2023-11-19T01:47:18;98396.66;;;8.36;100.00
41140;BME280;26881;48.784;9.192;2023-11-19T01:52:41;98404.13;;;8.27;100.00
41140;BME280;26881;48.784;9.192;2023-11-19T01:58:03;98405.91;;;8.26;100.00
41140;BME280;26881;48.784;9.192;2023-11-19T02:03:25;98403.28;;;8.26;100.00
41140;BME280;26881;48.784;9.192;2023-11-19T02:08:49;98388.78;;;8.38;100.00
41140;BME280;26881;48.784;9.192;2023-11-19T02:14:11;98390.69;;;8.52;100.00
41140;BME280;26881;48.784;9.192;2023-11-19T02:19:33;98384.88;;;8.47;100.00
41140;BME280;26881;48.784;9.192;2023-11-19T02:24:59;98382.41;;;8.43;100.00
41140;BME280;26881;48.784;9.192;2023-11-19T02:30:23;98377.13;;;8.45;100.00
41140;BME280;26881;48.784;9.192;2023-11-19T02:35:48;98377.97;;;8.46;100.00
41140;BME280;26881;48.784;9.192;2023-11-19T02:41:09;98375.81;;;8.54;100.00
41140;BME280;26881;48.784;9.192;2023-11-19T02:46:31;98375.81;;;8.54;100.00
41140;BME280;26881;48.784;9.192;2023-11-19T02:51:53;98380.84;;;8.57;100.00
41140;BME280;26881;48.784;9.192;2023-11-19T02:57:15;98392.88;;;8.59;100.00
41140;BME280;26881;48.784;9.192;2023-11-19T03:02:46;98378.81;;;8.62;100.00
41140;BME280;26881;48.784;9.192;2023-11-19T03:08:10;98384.91;;;8.62;100.00
41140;BME280;26881;48.784;9.192;2023-11-19T03:13:44;98382.94;;;8.66;100.00
41140;BME280;26881;48.784;9.192;2023-11-19T03:19:05;98394.97;;;8.69;100.00
41140;BME280;26881;48.784;9.192;2023-11-19T03:24:27;98392.38;;;8.69;100.00
41140;BME280;26881;48.784;9.192;2023-11-19T03:29:49;98391.28;;;8.73;100.00
41140;BME280;26881;48.784;9.192;2023-11-19T03:35:11;98390.19;;;8.77;100.00
41140;BME280;26881;48.784;9.192;2023-11-19T03:40:33;98381.50;;;8.76;100.00
41140;BME280;26881;48.784;9.192;2023-11-19T03:45:55;98370.69;;;8.84;100.00
41140;BME280;26881;48.784;9.192;2023-11-19T03:51:17;98364.09;;;9.08;100.00
41140;BME280;26881;48.784;9.192;2023-11-19T03:56:39;98364.75;;;9.12;100.00
41140;BME280;26881;48.784;9.192;2023-11-19T04:02:01;98351.78;;;9.11;100.00
41140;BME280;26881;48.784;9.192;2023-11-19T04:07:24;98337.84;;;9.12;100.00
41140;BME280;26881;48.784;9.192;2023-11-19T04:12:46;98328.59;;;9.36;100.00
41140;BME280;26881;48.784;9.192;2023-11-19T04:18:07;98340.31;;;9.59;100.00
41140;BME280;26881;48.784;9.192;2023-11-19T04:23:30;98341.91;;;9.90;100.00
41140;BME280;26881;48.784;9.192;2023-11-19T04:28:53;98334.19;;;10.03;100.00
41140;BME280;26881;48.784;9.192;2023-11-19T04:34:14;98326.63;;;10.42;100.00
41140;BME280;26881;48.784;9.192;2023-11-19T04:39:36;98332.88;;;10.68;100.00
41140;BME280;26881;48.784;9.192;2023-11-19T04:44:58;98324.22;;;10.80;100.00
41140;BME280;26881;48.784;9.192;2023-11-19T04:50:20;98340.16;;;10.90;100.00
41140;BME280;26881;48.784;9.192;2023-11-19T04:55:43;98333.81;;;10.94;100.00
41140;BME280;26881;48.784;9.192;2023-11-19T05:01:05;98334.78;;;11.06;100.00
41140;BME280;26881;48.784;9.192;2023-11-19T05:06:30;98339.53;;;11.13;100.00
41140;BME280;26881;48.784;9.192;2023-11-19T05:11:53;98345.94;;;11.22;100.00
41140;BME280;26881;48.784;9.192;2023-11-19T05:17:16;98332.94;;;11.21;100.00
41140;BME280;26881;48.784;9.192;2023-11-19T05:22:41;98331.81;;;11.25;100.00
41140;BME280;26881;48.784;9.192;2023-11-19T05:28:03;98338.84;;;11.24;100.00
41140;BME280;26881;48.784;9.192;2023-11-19T05:33:25;98349.00;;;11.29;100.00
41140;BME280;26881;48.784;9.192;2023-11-19T05:38:46;98345.25;;;11.33;100.00
41140;BME280;26881;48.784;9.192;2023-11-19T05:44:08;98346.09;;;11.33;100.00
41140;BME280;26881;48.784;9.192;2023-11-19T05:49:30;98342.94;;;11.41;100.00
41140;BME280;26881;48.784;9.192;2023-11-19T05:54:52;98338.47;;;11.43;100.00
41140;BME280;26881;48.784;9.192;2023-11-19T06:00:14;98329.91;;;11.54;100.00
41140;BME280;26881;48.784;9.192;2023-11-19T06:05:37;98318.25;;;11.58;100.00
41140;BME280;26881;48.784;9.192;2023-11-19T06:10:59;98326.84;;;11.60;100.00
41140;BME280;26881;48.784;9.192;2023-11-19T06:16:22;98328.84;;;11.69;100.00
41140;BME280;26881;48.784;9.192;2023-11-19T06:21:44;98333.56;;;11.77;100.00
41140;BME280;26881;48.784;9.192;2023-11-19T06:27:06;98342.47;;;11.74;100.00
41140;BME280;26881;48.784;9.192;2023-11-19T06:32:31;98352.34;;;11.71;100.00
41140;BME280;26881;48.784;9.192;2023-11-19T06:37:54;98363.66;;;11.71;100.00
41140;BME280;26881;48.784;9.192;2023-11-19T06:43:16;98374.56;;;11.78;100.00
41140;BME280;26881;48.784;9.192;2023-11-19T06:48:38;98367.13;;;11.85;100.00
41140;BME280;26881;48.784;9.192;2023-11-19T06:54:01;98364.47;;;11.72;100.00
41140;BME280;26881;48.784;9.192;2023-11-19T06:59:23;98374.66;;;11.76;100.00
41140;BME280;26881;48.784;9.192;2023-11-19T07:04:45;98371.19;;;11.76;100.00
41140;BME280;26881;48.784;9.192;2023-11-19T07:10:07;98379.16;;;11.74;100.00
41140;BME280;26881;48.784;9.192;2023-11-19T07:15:31;98363.75;;;11.70;100.00
41140;BME280;26881;48.784;9.192;2023-11-19T07:20:54;98371.50;;;11.71;100.00
41140;BME280;26881;48.784;9.192;2023-11-19T07:26:16;98368.78;;;11.73;100.00
41140;BME280;26881;48.784;9.192;2023-11-19T07:31:38;98357.56;;;11.71;100.00
41140;BME280;26881;48.784;9.192;2023-11-19T07:37:00;98388.94;;;11.85;100.00
41140;BME280;26881;48.784;9.192;2023-11-19T07:42:24;98400.84;;;11.76;100.00
41140;BME280;26881;48.784;9.192;2023-11-19T07:47:46;98392.31;;;11.87;100.00
41140;BME280;26881;48.784;9.192;2023-11-19T07:53:08;98395.06;;;11.98;100.00
41140;BME280;26881;48.784;9.192;2023-11-19T07:58:30;98405.31;;;12.01;100.00
41140;BME280;26881;48.784;9.192;2023-11-19T08:03:52;98408.69;;;12.04;100.00
41140;BME280;26881;48.784;9.192;2023-11-19T08:09:17;98390.63;;;12.12;100.00
41140;BME280;26881;48.784;9.192;2023-11-19T08:14:39;98401.13;;;12.25;100.00
41140;BME280;26881;48.784;9.192;2023-11-19T08:20:01;98384.44;;;12.38;100.00
41140;BME280;26881;48.784;9.192;2023-11-19T08:25:23;98386.53;;;12.59;100.00
41140;BME280;26881;48.784;9.192;2023-11-19T08:30:45;98401.53;;;12.57;100.00
41140;BME280;26881;48.784;9.192;2023-11-19T08:36:07;98394.66;;;12.80;100.00
41140;BME280;26881;48.784;9.192;2023-11-19T08:41:29;98387.22;;;13.11;100.00
41140;BME280;26881;48.784;9.192;2023-11-19T08:46:52;98408.22;;;13.47;98.28
41140;BME280;26881;48.784;9.192;2023-11-19T08:52:14;98401.22;;;13.59;95.01
41140;BME280;26881;48.784;9.192;2023-11-19T08:57:35;98400.03;;;13.39;96.26
41140;BME280;26881;48.784;9.192;2023-11-19T09:02:57;98409.47;;;13.42;97.60
41140;BME280;26881;48.784;9.192;2023-11-19T09:08:20;98410.16;;;13.57;95.80
41140;BME280;26881;48.784;9.192;2023-11-19T09:13:42;98407.28;;;13.95;93.97
41140;BME280;26881;48.784;9.192;2023-11-19T09:19:04;98409.13;;;14.28;89.26
41140;BME280;26881;48.784;9.192;2023-11-19T09:24:27;98410.88;;;13.94;90.40
41140;BME280;26881;48.784;9.192;2023-11-19T09:29:49;98420.69;;;14.03;88.67
41140;BME280;26881;48.784;9.192;2023-11-19T09:35:16;98440.66;;;14.06;89.16
41140;BME280;26881;48.784;9.192;2023-11-19T09:40:38;98429.00;;;15.11;82.50
41140;BME280;26881;48.784;9.192;2023-11-19T09:46:04;98424.34;;;15.04;82.76
41140;BME280;26881;48.784;9.192;2023-11-19T09:51:28;98428.09;;;15.98;75.36
41140;BME280;26881;48.784;9.192;2023-11-19T09:56:50;98428.88;;;16.92;71.84
41140;BME280;26881;48.784;9.192;2023-11-19T10:02:13;98427.50;;;17.77;64.86
41140;BME280;26881;48.784;9.192;2023-11-19T10:07:36;98418.44;;;17.89;63.29
41140;BME280;26881;48.784;9.192;2023-11-19T10:12:58;98404.19;;;18.20;61.45
41140;BME280;26881;48.784;9.192;2023-11-19T10:18:28;98410.72;;;16.78;68.29
41140;BME280;26881;48.784;9.192;2023-11-19T10:23:51;98413.72;;;16.94;68.83
41140;BME280;26881;48.784;9.192;2023-11-19T10:29:13;98412.44;;;16.48;70.36
41140;BME280;26881;48.784;9.192;2023-11-19T10:34:36;98413.38;;;15.95;73.95
41140;BME280;26881;48.784;9.192;2023-11-19T10:40:01;98425.28;;;15.57;79.28
41140;BME280;26881;48.784;9.192;2023-11-19T10:45:23;98408.88;;;16.69;74.21
41140;BME280;26881;48.784;9.192;2023-11-19T10:50:46;98392.84;;;18.00;62.48
41140;BME280;26881;48.784;9.192;2023-11-19T10:56:11;98397.75;;;16.86;64.73
41140;BME280;26881;48.784;9.192;2023-11-19T11:01:45;98394.50;;;16.82;65.25
41140;BME280;26881;48.784;9.192;2023-11-19T11:07:08;98384.88;;;16.72;64.59
41140;BME280;26881;48.784;9.192;2023-11-19T11:12:32;98394.44;;;16.32;64.92
41140;BME280;26881;48.784;9.192;2023-11-19T11:18:02;98407.59;;;15.80;65.37
41140;BME280;26881;48.784;9.192;2023-11-19T11:29:24;98402.81;;;15.31;63.38
41140;BME280;26881;48.784;9.192;2023-11-19T11:34:52;98392.13;;;15.11;63.75
41140;BME280;26881;48.784;9.192;2023-11-19T11:40:17;98389.00;;;15.17;63.22
41140;BME280;26881;48.784;9.192;2023-11-19T11:45:45;98385.03;;;15.12;63.88
41140;BME280;26881;48.784;9.192;2023-11-19T11:51:07;98376.84;;;15.26;63.83
41140;BME280;26881;48.784;9.192;2023-11-19T11:56:33;98375.84;;;15.71;62.37
41140;BME280;26881;48.784;9.192;2023-11-19T12:01:58;98372.44;;;16.01;62.16
41140;BME280;26881;48.784;9.192;2023-11-19T12:07:22;98358.84;;;17.17;58.26
41140;BME280;26881;48.784;9.192;2023-11-19T12:12:45;98359.97;;;17.63;55.79
41140;BME280;26881;48.784;9.192;2023-11-19T12:18:07;98339.66;;;18.30;54.09
41140;BME280;26881;48.784;9.192;2023-11-19T12:23:30;98348.41;;;18.68;53.42
41140;BME280;26881;48.784;9.192;2023-11-19T12:28:59;98332.16;;;18.26;52.24
41140;BME280;26881;48.784;9.192;2023-11-19T12:34:21;98313.06;;;18.22;51.32
41140;BME280;26881;48.784;9.192;2023-11-19T12:39:46;98303.88;;;18.26;50.23
41140;BME280;26881;48.784;9.192;2023-11-19T12:45:08;98302.38;;;18.51;48.66
41140;BME280;26881;48.784;9.192;2023-11-19T12:56:13;98296.34;;;17.75;49.26
41140;BME280;26881;48.784;9.192;2023-11-19T13:01:35;98290.81;;;18.98;46.04
41140;BME280;26881;48.784;9.192;2023-11-19T13:06:59;98295.06;;;19.53;45.52
41140;BME280;26881;48.784;9.192;2023-11-19T13:12:24;98295.25;;;19.51;45.57
41140;BME280;26881;48.784;9.192;2023-11-19T13:17:47;98282.56;;;20.15;42.10
41140;BME280;26881;48.784;9.192;2023-11-19T13:23:10;98287.75;;;19.47;42.64
41140;BME280;26881;48.784;9.192;2023-11-19T13:28:32;98289.97;;;18.98;43.28
41140;BME280;26881;48.784;9.192;2023-11-19T13:33:54;98286.75;;;18.48;44.91
41140;BME280;26881;48.784;9.192;2023-11-19T13:39:16;98283.91;;;17.95;46.33
41140;BME280;26881;48.784;9.192;2023-11-19T13:44:44;98283.06;;;16.98;48.54
41140;BME280;26881;48.784;9.192;2023-11-19T13:50:08;98285.19;;;16.64;50.13
41140;BME280;26881;48.784;9.192;2023-11-19T13:55:30;98279.19;;;16.52;50.94
41140;BME280;26881;48.784;9.192;2023-11-19T14:00:52;98296.56;;;16.14;52.53
41140;BME280;26881;48.784;9.192;2023-11-19T14:06:14;98293.94;;;15.84;52.24
41140;BME280;26881;48.784;9.192;2023-11-19T14:11:36;98289.47;;;15.63;52.17
41140;BME280;26881;48.784;9.192;2023-11-19T14:16:58;98290.13;;;15.34;51.82
41140;BME280;26881;48.784;9.192;2023-11-19T14:22:35;98301.22;;;15.38;51.60
41140;BME280;26881;48.784;9.192;2023-11-19T14:27:57;98298.34;;;15.20;52.92
41140;BME280;26881;48.784;9.192;2023-11-19T14:33:18;98291.53;;;15.17;53.71
41140;BME280;26881;48.784;9.192;2023-11-19T14:38:40;98284.84;;;15.13;53.69
41140;BME280;26881;48.784;9.192;2023-11-19T14:44:02;98272.19;;;14.96;54.62
41140;BME280;26881;48.784;9.192;2023-11-19T14:49:25;98282.66;;;14.86;55.41
41140;BME280;26881;48.784;9.192;2023-11-19T14:54:47;98277.69;;;14.61;57.05
41140;BME280;26881;48.784;9.192;2023-11-19T15:00:10;98269.34;;;14.56;57.95
41140;BME280;26881;48.784;9.192;2023-11-19T15:05:35;98276.50;;;14.53;58.64
41140;BME280;26881;48.784;9.192;2023-11-19T15:10:57;98276.50;;;14.42;58.34
41140;BME280;26881;48.784;9.192;2023-11-19T15:16:22;98288.25;;;14.27;58.72
41140;BME280;26881;48.784;9.192;2023-11-19T15:21:47;98296.63;;;14.21;57.53
41140;BME280;26881;48.784;9.192;2023-11-19T15:27:09;98290.63;;;14.07;57.10
41140;BME280;26881;48.784;9.192;2023-11-19T15:32:35;98294.47;;;14.03;56.88
41140;BME280;26881;48.784;9.192;2023-11-19T15:37:57;98292.22;;;13.99;57.05
41140;BME280;26881;48.784;9.192;2023-11-19T15:43:19;98288.84;;;13.85;57.66
41140;BME280;26881;48.784;9.192;2023-11-19T15:48:42;98281.41;;;13.79;58.04
41140;BME280;26881;48.784;9.192;2023-11-19T15:54:03;98289.53;;;13.65;59.30
41140;BME280;26881;48.784;9.192;2023-11-19T15:59:27;98292.78;;;13.68;59.36
41140;BME280;26881;48.784;9.192;2023-11-19T16:04:48;98295.13;;;13.60;59.92
41140;BME280;26881;48.784;9.192;2023-11-19T16:10:11;98287.56;;;13.44;60.34
41140;BME280;26881;48.784;9.192;2023-11-19T16:15:34;98288.91;;;13.50;60.21
41140;BME280;26881;48.784;9.192;2023-11-19T16:20:57;98315.84;;;13.30;61.41
41140;BME280;26881;48.784;9.192;2023-11-19T16:26:19;98320.41;;;13.39;61.50
41140;BME280;26881;48.784;9.192;2023-11-19T16:31:41;98323.91;;;13.26;62.29
41140;BME280;26881;48.784;9.192;2023-11-19T16:37:05;98306.94;;;13.19;62.88
41140;BME280;26881;48.784;9.192;2023-11-19T16:42:28;98318.56;;;13.04;64.03
41140;BME280;26881;48.784;9.192;2023-11-19T16:47:49;98322.91;;;12.92;64.85
41140;BME280;26881;48.784;9.192;2023-11-19T16:53:11;98330.69;;;12.94;65.43
41140;BME280;26881;48.784;9.192;2023-11-19T16:58:33;98334.69;;;12.86;65.94
41140;BME280;26881;48.784;9.192;2023-11-19T17:03:55;98331.16;;;12.75;67.13
41140;BME280;26881;48.784;9.192;2023-11-19T17:09:19;98332.13;;;12.74;67.56
41140;BME280;26881;48.784;9.192;2023-11-19T17:14:41;98339.09;;;12.62;67.98
41140;BME280;26881;48.784;9.192;2023-11-19T17:20:04;98352.13;;;12.51;68.75
41140;BME280;26881;48.784;9.192;2023-11-19T17:25:27;98361.13;;;12.47;69.11
41140;BME280;26881;48.784;9.192;2023-11-19T17:30:49;98374.47;;;12.43;69.07
41140;BME280;26881;48.784;9.192;2023-11-19T17:36:11;98357.59;;;12.35;69.53
41140;BME280;26881;48.784;9.192;2023-11-19T17:41:33;98347.75;;;12.38;68.59
41140;BME280;26881;48.784;9.192;2023-11-19T17:46:55;98339.22;;;12.48;67.03
41140;BME280;26881;48.784;9.192;2023-11-19T17:52:17;98342.81;;;12.34;67.46
41140;BME280;26881;48.784;9.192;2023-11-19T17:57:40;98340.81;;;12.37;66.61
41140;BME280;26881;48.784;9.192;2023-11-19T18:03:03;98340.28;;;12.45;65.41
41140;BME280;26881;48.784;9.192;2023-11-19T18:08:26;98325.69;;;12.41;65.41
41140;BME280;26881;48.784;9.192;2023-11-19T18:13:48;98333.16;;;12.47;64.52
41140;BME280;26881;48.784;9.192;2023-11-19T18:19:11;98341.53;;;12.39;64.81
41140;BME280;26881;48.784;9.192;2023-11-19T18:24:33;98350.53;;;12.48;64.99
41140;BME280;26881;48.784;9.192;2023-11-19T18:29:57;98349.53;;;12.38;65.78
41140;BME280;26881;48.784;9.192;2023-11-19T18:35:19;98358.41;;;12.35;66.85
41140;BME280;26881;48.784;9.192;2023-11-19T18:40:46;98365.25;;;12.25;67.51
41140;BME280;26881;48.784;9.192;2023-11-19T18:46:08;98370.28;;;12.28;68.88
41140;BME280;26881;48.784;9.192;2023-11-19T18:51:30;98369.88;;;12.34;69.54
41140;BME280;26881;48.784;9.192;2023-11-19T18:56:52;98372.50;;;12.34;69.78
41140;BME280;26881;48.784;9.192;2023-11-19T19:02:18;98394.31;;;12.22;71.04
41140;BME280;26881;48.784;9.192;2023-11-19T19:07:41;98390.63;;;12.12;72.50
41140;BME280;26881;48.784;9.192;2023-11-19T19:13:03;98397.88;;;12.21;72.11
41140;BME280;26881;48.784;9.192;2023-11-19T19:18:25;98408.81;;;12.15;73.78
41140;BME280;26881;48.784;9.192;2023-11-19T19:23:47;98416.53;;;12.04;75.18
41140;BME280;26881;48.784;9.192;2023-11-19T19:29:09;98404.59;;;11.99;75.53
41140;BME280;26881;48.784;9.192;2023-11-19T19:34:32;98418.94;;;11.94;76.50
41140;BME280;26881;48.784;9.192;2023-11-19T19:39:54;98434.03;;;11.90;77.77
41140;BME280;26881;48.784;9.192;2023-11-19T19:45:16;98442.22;;;11.98;80.07
41140;BME280;26881;48.784;9.192;2023-11-19T19:50:38;98457.22;;;11.96;87.27
41140;BME280;26881;48.784;9.192;2023-11-19T19:56:00;98451.16;;;11.81;91.29
41140;BME280;26881;48.784;9.192;2023-11-19T20:01:22;98449.06;;;11.74;93.75
41140;BME280;26881;48.784;9.192;2023-11-19T20:06:44;98442.91;;;11.48;97.65
41140;BME280;26881;48.784;9.192;2023-11-19T20:12:08;98451.75;;;11.59;98.94
41140;BME280;26881;48.784;9.192;2023-11-19T20:17:30;98455.00;;;11.36;100.00
41140;BME280;26881;48.784;9.192;2023-11-19T20:22:52;98446.09;;;11.11;100.00
41140;BME280;26881;48.784;9.192;2023-11-19T20:28:14;98452.19;;;11.12;100.00
41140;BME280;26881;48.784;9.192;2023-11-19T20:33:36;98452.81;;;11.15;100.00
41140;BME280;26881;48.784;9.192;2023-11-19T20:38:58;98452.81;;;11.15;100.00
41140;BME280;26881;48.784;9.192;2023-11-19T20:44:20;98455.22;;;11.18;100.00
41140;BME280;26881;48.784;9.192;2023-11-19T20:49:42;98450.28;;;11.14;100.00
41140;BME280;26881;48.784;9.192;2023-11-19T20:55:04;98437.56;;;11.22;96.75
41140;BME280;26881;48.784;9.192;2023-11-19T21:00:26;98451.50;;;11.23;93.95
41140;BME280;26881;48.784;9.192;2023-11-19T21:05:48;98446.66;;;11.16;91.73
41140;BME280;26881;48.784;9.192;2023-11-19T21:11:15;98450.19;;;11.15;93.20
41140;BME280;26881;48.784;9.192;2023-11-19T21:16:37;98450.78;;;11.06;93.42
41140;BME280;26881;48.784;9.192;2023-11-19T21:21:59;98451.53;;;11.08;90.58
41140;BME280;26881;48.784;9.192;2023-11-19T21:27:21;98448.53;;;11.14;87.74
41140;BME280;26881;48.784;9.192;2023-11-19T21:32:43;98448.06;;;11.08;85.16
41140;BME280;26881;48.784;9.192;2023-11-19T21:38:05;98450.97;;;11.03;85.92
41140;BME280;26881;48.784;9.192;2023-11-19T21:43:27;98456.31;;;11.02;81.90
41140;BME280;26881;48.784;9.192;2023-11-19T21:48:49;98455.28;;;11.04;80.26
41140;BME280;26881;48.784;9.192;2023-11-19T21:54:11;98448.75;;;10.97;81.40
41140;BME280;26881;48.784;9.192;2023-11-19T21:59:33;98442.59;;;10.98;77.95
41140;BME280;26881;48.784;9.192;2023-11-19T22:04:55;98430.50;;;11.10;76.23
41140;BME280;26881;48.784;9.192;2023-11-19T22:10:17;98433.56;;;11.16;75.03
41140;BME280;26881;48.784;9.192;2023-11-19T22:15:39;98438.69;;;10.91;76.94
41140;BME280;26881;48.784;9.192;2023-11-19T22:21:00;98455.88;;;10.81;77.48
41140;BME280;26881;48.784;9.192;2023-11-19T22:26:22;98453.44;;;10.78;77.13
41140;BME280;26881;48.784;9.192;2023-11-19T22:31:44;98457.66;;;10.80;77.63
41140;BME280;26881;48.784;9.192;2023-11-19T22:37:07;98464.28;;;10.57;78.17
41140;BME280;26881;48.784;9.192;2023-11-19T22:42:29;98460.72;;;10.44;80.42
41140;BME280;26881;48.784;9.192;2023-11-19T22:47:51;98460.16;;;10.53;78.72
41140;BME280;26881;48.784;9.192;2023-11-19T22:53:13;98462.41;;;10.30;82.30
41140;BME280;26881;48.784;9.192;2023-11-19T22:58:35;98461.66;;;10.28;81.40
41140;BME280;26881;48.784;9.192;2023-11-19T23:03:57;98453.00;;;10.12;80.33
41140;BME280;26881;48.784;9.192;2023-11-19T23:09:19;98473.19;;;10.24;79.59
41140;BME280;26881;48.784;9.192;2023-11-19T23:14:41;98467.44;;;10.33;78.32
41140;BME280;26881;48.784;9.192;2023-11-19T23:20:03;98443.91;;;10.33;75.83
41140;BME280;26881;48.784;9.192;2023-11-19T23:25:29;98449.22;;;10.46;73.71
41140;BME280;26881;48.784;9.192;2023-11-19T23:30:51;98440.94;;;10.54;73.64
41140;BME280;26881;48.784;9.192;2023-11-19T23:36:13;98443.28;;;10.44;72.14
41140;BME280;26881;48.784;9.192;2023-11-19T23:41:35;98446.94;;;10.56;71.47
41140;BME280;26881;48.784;9.192;2023-11-19T23:46:56;98443.38;;;10.43;71.30
41140;BME280;26881;48.784;9.192;2023-11-19T23:52:18;98443.16;;;10.46;71.86
41140;BME280;26881;48.784;9.192;2023-11-19T23:57:40;98448.50;;;10.44;72.12
